Tropical Cyclones
[Index]
Main Index Home Page Stock Weather Photos Extreme Storms Discussion Storm News and Storm Chasing Reports Tropical Cyclones / Hurricanes / Typhoons Weather Data and Links Wild Fires / Bushfires Weather Observation Techniques Weather Picture Catalogue Tornado Pictures and Reports Stock Video Footage and DVDs for sale
Season 2009-2010 Tropical Cyclone DAVID Track Map
Season 2009-2010 Summaries: [BoM-AU] [JTWC-AU] [JTWC-SIO] [JTWC-SPAC] [JTWC-SH]
<<- Previous TC | JTWC 2009-2010 Season | Next TC ->>

click for intensity scale information  Lat/long Grid: Show Hide

 Date Labels: Show Hide

Joint Typhoon Warning Centre Cyclone Data

Name: DAVID

12 Dec 2009 00:00 UTC to 26 Dec 2009 00:00 UTC

    date/time    lat    long     hPa   cat  kts
2009-12-12 00    6.6    85.8    1010         15          
2009-12-12 06    7.0    85.2    1007         20          
2009-12-12 12    7.6    84.8    1007         20          
2009-12-12 18    8.4    85.1    1004         25          
2009-12-13 00    9.4    84.9    1000         30          
2009-12-13 06   10.1    84.0    1000         30          
2009-12-13 12   11.0    83.2    1000         30          
2009-12-13 18   11.9    82.4    1000         30          
2009-12-14 00   12.5    81.9    1000         30          
2009-12-14 06   13.0    81.3    1000         30          
2009-12-14 12   13.5    80.5    1000         30          
2009-12-14 18   14.2    79.4    1000         30          
2009-12-15 00   14.7    78.5    1000         30          
2009-12-15 06   15.0    77.7    1000         30          
2009-12-15 12   15.2    77.0    1000         30          
2009-12-15 18   15.2    76.2    1000         30          
2009-12-16 00   15.1    75.6    1000         30          
2009-12-16 06   14.9    74.8    1000         30          
2009-12-16 12   14.7    74.1    1000         30          
2009-12-16 18   14.4    73.3    1000         30          
2009-12-17 00   14.2    72.5    1000         30          
2009-12-17 06   13.7    72.0    1004         25          
2009-12-17 12   13.3    71.1    1004         25          
2009-12-17 18   13.0    69.8    1004         25          
2009-12-18 00   12.6    68.8    1004         25          
2009-12-18 06   12.1    68.0    1004         25          
2009-12-18 12   11.9    67.4    1004         25          
2009-12-18 18   11.9    66.7    1004         25          
2009-12-19 00   11.8    66.0    1004         25          
2009-12-19 06   11.8    65.3    1004         25          
2009-12-19 12   11.8    64.4    1004         25          
2009-12-19 18   11.3    63.8    1000         30          
2009-12-20 00   11.1    63.4    1000         30          
2009-12-20 06   11.1    62.5     996         35          
2009-12-20 12   11.0    62.1     996         35          
2009-12-20 18   10.9    61.9     996         35          
2009-12-21 00   10.8    62.2     996         35          
2009-12-21 06   10.9    62.6     996         35          
2009-12-21 12   10.9    63.2     996         35          
2009-12-21 18   11.5    63.8     993    1    40          
2009-12-22 00   11.8    64.7     989    1    45          
2009-12-22 06   12.2    65.5     989    1    45          
2009-12-22 12   12.7    66.3     989    1    45          
2009-12-22 18   13.2    67.0     982    2    55          
2009-12-22 18   13.2    67.0     982    2    55          
2009-12-23 00   13.6    67.7     982    2    55          
2009-12-23 00   13.6    67.7     982    2    55          
2009-12-23 06   13.9    68.2     982    2    55          
2009-12-23 06   13.9    68.2     982    2    55          
2009-12-23 12   14.3    68.6     985    1    50          
2009-12-23 18   14.6    69.1     985    1    50          
2009-12-24 00   14.7    69.6     985    1    50          
2009-12-24 06   14.7    70.1     985    1    50          
2009-12-24 06   14.7    70.1     985    1    50          
2009-12-24 12   14.6    70.5     985    1    50          
2009-12-24 12   14.6    70.5     985    1    50          
2009-12-24 18   14.5    70.7     989    1    45          
2009-12-25 00   14.3    70.8     993    1    40          
2009-12-25 06   13.9    70.9    1000         30          
2009-12-25 12   13.8    71.3    1000         30          
2009-12-25 18   14.1    71.5    1000         30          
2009-12-26 00   14.5    71.2    1004         25          
Winds are 1-min average.

Tropical cyclone tracks developed by Michael Bath using data from the Joint Typhoon Warning Centre Best Tracks and Google Maps.


[Australian Severe Weather index] [Copyright Notice] [Email Contacts] [Search This Site] [Privacy Policy]
Document: tropical_cyclone_david.htm Updated: 28 June 2017